• Join FlightAware (Why Join?)
  • Login
  • US Flag 
09:55AM EDT


 

Airport Tracker/Info


-or-


 

Live Flight TrackerFlight Track Log ✈ SWA2336 ✈ 08-Apr-2013 ✈ KAUS - KDAL

Flight Track Log - Related Links

Times and Time Zones

All times are in EDT time to prevent confusion due to time zone crossing. See the SWA2336 flight status page for this flight to view local times or setup timezone preferences in your user account.

Time Position Orientation Groundspeed Altitude Reporting Facility
EDT Latitude Longitude Course Direction KTS MPH feet Rate Location/Type
01:07PM 30.1036 -97.6058 45° Northeast 229 264 5,700  Level Houston Center
01:08PM 30.1800 -97.5414 36° Northeast 291 335 9,800 2,820 Climbing Houston Center
01:09PM 30.2589 -97.4936 28° Northeast 309 356 11,600 1,740 Climbing Houston Center
01:10PM 30.3522 -97.4350 28° Northeast 365 420 13,400 2,160 Climbing Houston Center
01:11PM 30.3315 -97.5519 41° Northeast  Level FlightAware Approximate
01:11PM 30.4500 -97.3747 28° Northeast 389 448 16,100  Level Houston Center
01:12PM 30.3984 -97.4828 45° Northeast  Level FlightAware Approximate
01:12PM 30.5497 -97.3103 29° Northeast 401 461 18,800  Level Houston Center
01:13PM 30.6394 -97.2175 42° Northeast 427 491 20,800 1,500 Climbing Houston Center
01:14PM 30.7403 -97.0961 46° Northeast 444 511 22,000 540 Climbing Houston Center
01:15PM 30.8308 -96.9878 46° Northeast 462 532 22,000  Level Houston Center
01:16PM 30.9219 -96.8803 45° Northeast 468 539 22,000  Level Houston Center
01:17PM 31.0114 -96.7733 46° Northeast 462 532 22,000  Level Houston Center
01:18PM 31.1025 -96.6628 46° Northeast 469 540 22,000  Level Houston Center
01:19PM 31.1914 -96.5550 46° Northeast 460 529 22,000  Level Houston Center
01:20PM 31.2961 -96.4286 46° Northeast 461 531 22,000  Level Houston Center
01:21PM 31.4039 -96.3583 29° Northeast 452 520 22,000  Level Houston Center
01:23PM 31.5272 -96.3381 North 443 510 22,000  Level Houston Center
01:24PM 31.6497 -96.3267 North 436 502 22,000 -120 Level Houston Center
01:25PM 31.7725 -96.3344 357° North 437 503 21,800 -1,200 Descending Houston Center
01:26PM 31.9019 -96.3414 357° North 414 476 19,500 -2,280 Descending Fort Worth Center
01:27PM 32.0083 -96.3500 356° North 391 450 17,200 -2,340 Descending Fort Worth Center
01:28PM 32.1150 -96.3539 358° North 385 443 14,900 -2,100 Descending Fort Worth Center
01:29PM 32.2069 -96.3600 357° North 374 430 13,100 -2,100 Descending Fort Worth Center
01:30PM 32.3156 -96.3661 357° North 361 415 10,700 -1,740 Descending Fort Worth Center
01:31PM 32.3989 -96.3703 358° North 353 406 9,700 -900 Descending Fort Worth Center
01:32PM 32.4892 -96.4011 344° North 315 362 8,900 -900 Descending Fort Worth Center
01:33PM 32.5561 -96.4422 333° Northwest 301 346 8,000 -1,020 Descending Fort Worth Center
01:34PM 32.6358 -96.4908 333° Northwest 301 346 6,900 -1,020 Descending Fort Worth Center
01:35PM 32.7008 -96.5344 331° Northwest 296 341 6,000 -1,020 Descending Fort Worth Center
01:36PM 32.7722 -96.5931 325° Northwest 284 327 4,900 -1,020 Descending Fort Worth Center
01:37PM 32.8289 -96.6397 325° Northwest 284 327 4,000 -480 Descending Fort Worth Center
01:38PM 32.8919 -96.6861 328° Northwest 255 293 4,000  Level Fort Worth Center
01:39PM 32.9400 -96.7203 329° Northwest 232 267 4,000  Level Fort Worth Center
01:40PM 32.9842 -96.7719 316° Northwest 203 234 4,000 -300 Level Fort Worth Center
01:41PM 32.9950 -96.8339 282° West 193 222 3,400 -900 Descending Fort Worth Center
01:42PM 32.9833 -96.9000 258° West 176 203 2,100 -660 Descending Dallas / Fort Worth TRACON
01:43PM 32.9333 -96.9333 209° Southwest 165 190 2,000 -180 Descending Dallas / Fort Worth TRACON
01:44PM 32.9000 -96.9167 157° South 151 174 1,800 -480 Descending Dallas / Fort Worth TRACON
01:45PM 32.8833 -96.9000 140° Southeast 130 150 1,200 -720 Descending Dallas / Fort Worth TRACON
01:47PM 32.8471 -96.8518 169° South  Level Estimated
01:54PM 32.8471 -96.8518 169° South  Level Estimated